createdAt,value
2023-06-07T00:04:34.248Z,21.65
2023-06-07T00:09:37.463Z,21.29
2023-06-07T00:14:40.669Z,22.11
2023-06-07T00:19:43.732Z,24.64
2023-06-07T00:24:46.886Z,24.74
2023-06-07T00:29:50.085Z,23.41
2023-06-07T00:34:53.223Z,22.61
2023-06-07T00:39:56.351Z,22.06
2023-06-07T00:44:59.437Z,21.61
2023-06-07T00:50:04.871Z,21.24
2023-06-07T00:55:09.660Z,22.12
2023-06-07T01:00:15.187Z,24.62
2023-06-07T01:05:21.587Z,24.78
2023-06-07T01:10:28.704Z,23.43
2023-06-07T01:15:33.105Z,22.63
2023-06-07T01:20:38.958Z,22.07
2023-06-07T01:25:42.060Z,21.61
2023-06-07T01:30:46.669Z,22.27
2023-06-07T01:35:53.361Z,24.73
2023-06-07T01:40:58.074Z,24.74
2023-06-07T01:46:02.427Z,23.35
2023-06-07T01:51:05.684Z,22.54
2023-06-07T01:56:17.451Z,21.97
2023-06-07T02:01:30.798Z,21.51
2023-06-07T02:06:38.027Z,22.37
2023-06-07T02:11:42.985Z,24.82
2023-06-07T02:16:46.130Z,24.72
2023-06-07T02:21:49.304Z,23.36
2023-06-07T02:26:55.315Z,22.56
2023-06-07T02:32:02.084Z,21.98
2023-06-07T02:37:05.916Z,21.49
2023-06-07T02:42:09.361Z,22.14
2023-06-07T02:47:12.536Z,24.53
2023-06-07T02:52:15.936Z,24.68
2023-06-07T02:57:19.188Z,23.30
2023-06-07T03:02:22.410Z,22.44
2023-06-07T03:07:27.154Z,21.86
2023-06-07T03:12:30.613Z,21.40
2023-06-07T03:17:34.640Z,22.15
2023-06-07T03:22:38.159Z,24.53
2023-06-07T03:27:44.496Z,24.72
2023-06-07T03:32:56.425Z,23.32
2023-06-07T03:38:11.084Z,22.49
2023-06-07T03:43:14.639Z,21.90
2023-06-07T03:48:19.659Z,21.42
2023-06-07T03:53:22.954Z,22.19
2023-06-07T03:58:26.273Z,24.57
2023-06-07T04:03:31.844Z,24.54
2023-06-07T04:08:38.569Z,23.20
2023-06-07T04:13:45.510Z,22.42
2023-06-07T04:18:49.095Z,21.88
2023-06-07T04:23:53.080Z,21.45
2023-06-07T04:28:59.795Z,22.22
2023-06-07T04:34:07.382Z,24.64
2023-06-07T04:39:12.487Z,24.64
2023-06-07T04:44:29.990Z,23.32
2023-06-07T04:49:42.121Z,22.53
2023-06-07T04:54:48.290Z,22.02
2023-06-07T04:59:53.806Z,21.64
2023-06-07T05:05:05.546Z,22.48
2023-06-07T05:10:09.400Z,24.92
2023-06-07T05:15:13.262Z,24.90
2023-06-07T05:20:18.708Z,23.66
2023-06-07T05:25:31.904Z,22.97
2023-06-07T05:30:35.920Z,22.48
2023-06-07T05:35:39.854Z,22.11
2023-06-07T05:40:43.832Z,21.78
2023-06-07T05:45:46.997Z,22.60
2023-06-07T05:50:50.323Z,25.13
2023-06-07T05:55:57.198Z,25.56
2023-06-07T06:01:00.555Z,24.28
2023-06-07T06:06:17.648Z,23.48
2023-06-07T06:13:52.417Z,22.67
2023-06-07T06:18:55.780Z,22.30
2023-06-07T06:23:59.498Z,21.99
2023-06-07T06:29:02.818Z,22.86
2023-06-07T06:34:06.690Z,25.34
2023-06-07T06:39:09.992Z,25.27
2023-06-07T06:44:13.372Z,24.12
2023-06-07T06:49:19.357Z,23.49
2023-06-07T06:54:22.926Z,23.05
2023-06-07T06:59:26.993Z,22.75
2023-06-07T07:04:30.546Z,22.51
2023-06-07T07:09:33.899Z,22.32
2023-06-07T07:14:37.087Z,22.18
2023-06-07T07:19:40.262Z,23.17
2023-06-07T07:24:43.397Z,25.69
2023-06-07T07:29:46.410Z,25.31
2023-06-07T07:34:49.683Z,24.34
2023-06-07T07:39:52.900Z,23.83
2023-06-07T07:44:56.279Z,23.49
2023-06-07T07:49:59.890Z,23.24
2023-06-07T07:55:04.584Z,23.06
2023-06-07T08:00:11.074Z,22.94
2023-06-07T08:05:22.873Z,22.83
2023-06-07T08:10:30.809Z,22.70
2023-06-07T08:15:34.159Z,22.63
2023-06-07T08:20:37.375Z,22.56
2023-06-07T08:25:40.683Z,22.52
2023-06-07T08:30:43.885Z,22.47
2023-06-07T08:35:47.026Z,22.47
2023-06-07T08:40:50.268Z,22.46
2023-06-07T08:45:54.791Z,22.47
2023-06-07T08:51:01.402Z,22.51
2023-06-07T08:56:05.673Z,22.52
2023-06-07T09:01:09.393Z,22.50
2023-06-07T09:06:14.872Z,22.50
2023-06-07T09:11:22.001Z,22.53
2023-06-07T09:16:54.484Z,22.57
2023-06-07T09:21:58.595Z,22.62
2023-06-07T09:27:04.412Z,22.68
2023-06-07T09:32:25.752Z,22.72
2023-06-07T09:37:42.292Z,22.78
2023-06-07T09:42:59.265Z,22.83
2023-06-07T09:48:06.148Z,22.86
2023-06-07T09:53:10.670Z,22.89
2023-06-07T09:58:23.712Z,22.91
2023-06-07T10:03:29.868Z,22.94
2023-06-07T10:08:33.942Z,23.14
2023-06-07T10:13:39.136Z,23.43
2023-06-07T10:18:45.813Z,23.56
2023-06-07T10:23:55.202Z,23.66
2023-06-07T10:29:10.744Z,23.71
2023-06-07T10:34:16.011Z,23.95
2023-06-07T10:39:19.970Z,24.19
2023-06-07T10:44:24.182Z,24.25
2023-06-07T10:49:38.424Z,24.45
2023-06-07T10:54:42.842Z,24.71
2023-06-07T10:59:46.085Z,24.72
2023-06-07T11:04:59.672Z,24.58
2023-06-07T11:10:06.331Z,24.40
2023-06-07T11:15:32.162Z,24.36
2023-06-07T11:20:41.857Z,24.46
2023-06-07T11:25:46.309Z,24.55
2023-06-07T11:30:50.704Z,24.53
2023-06-07T11:35:55.259Z,24.41
2023-06-07T11:40:58.630Z,24.30
2023-06-07T11:46:02.149Z,24.18
2023-06-07T11:51:05.226Z,24.01
2023-06-07T11:56:09.637Z,23.81
2023-06-07T12:01:13.679Z,23.64
2023-06-07T12:06:16.996Z,23.44
2023-06-07T12:11:25.832Z,23.29
2023-06-07T12:16:29.970Z,23.28
2023-06-07T12:21:33.696Z,23.37
2023-06-07T12:26:38.172Z,23.46
2023-06-07T12:31:48.005Z,23.54
2023-06-07T12:36:51.963Z,23.61
2023-06-07T12:41:55.135Z,23.69
2023-06-07T12:46:59.508Z,23.79
2023-06-07T12:52:03.818Z,23.87
2023-06-07T12:57:07.523Z,23.95
2023-06-07T13:02:11.778Z,23.99
2023-06-07T13:07:15.094Z,24.04
2023-06-07T13:12:18.640Z,24.15
2023-06-07T13:17:21.958Z,24.39
2023-06-07T13:22:25.690Z,24.73
2023-06-07T13:27:28.935Z,25.23
2023-06-07T13:32:32.169Z,25.55
2023-06-07T13:37:35.502Z,25.64
2023-06-07T13:42:40.956Z,25.92
2023-06-07T13:47:44.078Z,26.03
2023-06-07T13:52:47.127Z,25.93
2023-06-07T13:57:50.178Z,25.78
2023-06-07T14:02:53.898Z,25.59
2023-06-07T14:07:57.120Z,25.38
2023-06-07T14:13:00.567Z,25.15
2023-06-07T14:18:04.709Z,24.99
2023-06-07T14:23:08.928Z,24.98
2023-06-07T14:28:11.992Z,25.10
2023-06-07T14:33:15.136Z,25.18
2023-06-07T14:38:18.245Z,25.16
2023-06-07T14:43:21.524Z,25.04
2023-06-07T14:48:24.581Z,24.90
2023-06-07T14:53:27.723Z,24.84
2023-06-07T14:58:30.924Z,24.81
2023-06-07T15:03:36.856Z,24.73
2023-06-07T15:08:40.062Z,24.64
2023-06-07T15:13:43.541Z,24.59
2023-06-07T15:18:46.859Z,24.56
2023-06-07T15:23:51.137Z,24.49
2023-06-07T16:13:52.534Z,23.52
2023-06-07T16:18:55.795Z,23.46
2023-06-07T16:23:59.538Z,23.38
2023-06-07T16:29:05.389Z,23.31
2023-06-07T16:34:09.019Z,23.28
2023-06-07T16:39:12.241Z,23.24
2023-06-07T16:44:16.015Z,23.17
2023-06-07T16:49:19.705Z,23.08
2023-06-07T16:54:22.832Z,23.01
2023-06-07T16:59:26.780Z,22.96
2023-06-07T17:04:29.815Z,22.93
2023-06-07T17:09:32.916Z,22.93
2023-06-07T17:14:36.068Z,22.92
2023-06-07T17:19:39.423Z,22.90
2023-06-07T17:24:43.357Z,22.86
2023-06-07T17:29:46.694Z,22.85
2023-06-07T17:34:49.769Z,22.86
2023-06-07T17:39:53.272Z,22.85
2023-06-07T17:44:56.540Z,22.83
2023-06-07T17:49:59.590Z,22.79
2023-06-07T17:55:02.834Z,22.73
2023-06-07T18:00:07.635Z,22.69
2023-06-07T18:05:21.711Z,22.67
2023-06-07T18:10:24.928Z,22.63
2023-06-07T18:15:29.038Z,23.59
2023-06-07T18:20:32.607Z,26.17
2023-06-07T18:25:35.827Z,26.48
2023-06-07T18:30:39.037Z,25.30
2023-06-07T18:35:42.172Z,24.62
2023-06-07T18:40:45.252Z,24.15
2023-06-07T18:45:49.212Z,23.73
2023-06-07T18:50:52.440Z,23.38
2023-06-07T18:55:55.647Z,23.11
2023-06-07T19:00:58.692Z,22.88
2023-06-07T19:06:02.943Z,22.69
2023-06-07T19:11:06.578Z,22.54
2023-06-07T19:16:10.180Z,22.40
2023-06-07T19:21:24.787Z,23.37
2023-06-07T19:26:29.658Z,25.97
2023-06-07T19:31:34.328Z,26.38
2023-06-07T19:36:38.484Z,25.10
2023-06-07T19:41:42.959Z,24.34
2023-06-07T19:46:48.084Z,23.81
2023-06-07T19:51:51.243Z,23.35
2023-06-07T19:56:54.400Z,22.97
2023-06-07T20:01:58.752Z,22.66
2023-06-07T20:07:03.014Z,23.50
2023-06-07T20:12:10.733Z,25.93
2023-06-07T20:17:14.817Z,26.37
2023-06-07T20:22:18.053Z,25.00
2023-06-07T20:27:21.169Z,24.13
2023-06-07T20:32:24.331Z,23.52
2023-06-07T20:37:27.414Z,23.00
2023-06-07T20:42:30.531Z,22.56
2023-06-07T20:47:35.226Z,22.18
2023-06-07T20:52:38.361Z,22.95
2023-06-07T20:57:41.723Z,25.30
2023-06-07T21:02:45.075Z,25.52
2023-06-07T21:07:48.560Z,24.13
2023-06-07T21:12:51.684Z,23.30
2023-06-07T21:17:54.735Z,22.70
2023-06-07T21:22:57.940Z,22.20
2023-06-07T21:28:01.265Z,21.77
2023-06-07T21:33:13.090Z,22.59
2023-06-07T21:38:16.162Z,24.98
2023-06-07T21:43:19.806Z,25.18
2023-06-07T21:48:23.157Z,23.78
2023-06-07T21:53:26.564Z,22.92
2023-06-07T21:58:29.912Z,22.33
2023-06-07T22:03:33.817Z,21.84
2023-06-07T22:08:39.947Z,22.52
2023-06-07T22:13:45.918Z,24.88
2023-06-07T22:18:49.895Z,24.93
2023-06-07T22:23:53.318Z,23.52
2023-06-07T22:29:01.452Z,22.68
2023-06-07T22:34:05.755Z,22.07
2023-06-07T22:39:12.435Z,21.57
2023-06-07T22:44:15.748Z,22.27
2023-06-07T22:49:19.809Z,24.62
2023-06-07T22:54:24.122Z,24.57
2023-06-07T22:59:27.405Z,23.15
2023-06-07T23:04:34.686Z,22.32
2023-06-07T23:09:39.415Z,21.72
2023-06-07T23:14:43.706Z,21.21
2023-06-07T23:19:51.225Z,21.85
2023-06-07T23:24:54.525Z,24.07
2023-06-07T23:29:57.868Z,23.48
2023-06-07T23:35:08.664Z,22.23
2023-06-07T23:40:16.968Z,21.47
2023-06-07T23:45:29.420Z,20.89
2023-06-07T23:50:32.727Z,20.39
2023-06-07T23:55:36.123Z,21.17
